Time;durP1;ratioP1;P1;durP2;ratioP2;P2;SDS_P1;SDS_P2;PMS_P1;PMS_P2;Temp;Humidity;BMP_temperature;BMP_pressure;BME280_temperature;BME280_humidity;BME280_pressure;Samples;Min_cycle;Max_cycle;Signal;HPM_P1;HPM_P2
2021/03/12 00:00:55;;;;;;;9.27;5.03;;;4.30;99.90;;;;;;4984388;28;20141;-77
2021/03/12 00:03:29;;;;;;;7.70;4.03;;;4.30;99.90;;;;;;4984730;28;20046;-76
2021/03/12 00:05:59;;;;;;;7.32;3.75;;;4.20;99.90;;;;;;4984227;28;20101;-75
2021/03/12 00:08:33;;;;;;;7.03;3.95;;;4.00;99.90;;;;;;5001819;28;20380;-78
2021/03/12 00:10:59;;;;;;;6.00;3.38;;;4.00;99.90;;;;;;5000706;28;20050;-78
2021/03/12 00:13:26;;;;;;;5.40;3.10;;;3.90;99.90;;;;;;4956452;28;20194;-76
2021/03/12 00:15:54;;;;;;;11.85;2.95;;;3.90;99.90;;;;;;4951762;28;20062;-76
2021/03/12 00:18:24;;;;;;;9.90;3.60;;;3.90;99.90;;;;;;4983631;28;20045;-75
2021/03/12 00:20:50;;;;;;;4.18;2.70;;;3.90;99.90;;;;;;5000491;28;20422;-76
2021/03/12 00:23:17;;;;;;;5.55;3.20;;;3.80;99.90;;;;;;4985730;28;20085;-76
2021/03/12 00:25:46;;;;;;;4.80;2.88;;;3.80;99.90;;;;;;5002258;28;20049;-77
2021/03/12 00:28:14;;;;;;;7.40;3.63;;;3.60;99.90;;;;;;5002340;28;20054;-76
2021/03/12 00:30:42;;;;;;;8.55;4.15;;;3.50;99.90;;;;;;5009251;28;20097;-76
2021/03/12 00:33:09;;;;;;;13.48;3.70;;;3.50;99.90;;;;;;5007376;28;20049;-76
2021/03/12 00:35:41;;;;;;;11.52;5.03;;;3.50;99.90;;;;;;4954192;28;20058;-75
2021/03/12 00:38:08;;;;;;;9.30;5.00;;;3.60;99.90;;;;;;4988347;28;20065;-75
2021/03/12 00:40:48;;;;;;;13.38;4.85;;;3.50;99.90;;;;;;4980944;28;20082;-76
2021/03/12 00:43:16;;;;;;;8.07;5.38;;;3.50;99.90;;;;;;4987750;28;20054;-76
2021/03/12 00:45:45;;;;;;;13.60;7.32;;;3.50;99.90;;;;;;4988162;28;20102;-77
2021/03/12 00:48:16;;;;;;;15.43;5.95;;;3.50;99.90;;;;;;5004537;28;20054;-76
2021/03/12 00:50:43;;;;;;;16.65;5.72;;;3.50;99.90;;;;;;4988072;28;20093;-77
2021/03/12 00:53:17;;;;;;;12.25;6.30;;;3.50;99.90;;;;;;4988208;28;20426;-76
2021/03/12 00:55:44;;;;;;;13.00;5.63;;;3.60;99.90;;;;;;5019859;28;20066;-77
2021/03/12 00:58:14;;;;;;;14.02;6.32;;;3.60;99.90;;;;;;5004532;28;20050;-76
2021/03/12 01:00:42;;;;;;;11.90;5.88;;;3.60;99.90;;;;;;4987915;28;20038;-76
2021/03/12 01:03:13;;;;;;;8.52;4.93;;;3.60;99.90;;;;;;5003090;28;20054;-76
2021/03/12 01:05:43;;;;;;;12.95;4.57;;;3.60;99.90;;;;;;5003771;28;20065;-77
2021/03/12 01:08:14;;;;;;;13.77;6.30;;;3.70;99.90;;;;;;4986115;28;20042;-76
2021/03/12 01:10:41;;;;;;;12.55;6.22;;;3.70;99.90;;;;;;4998439;28;20055;-76
2021/03/12 01:13:08;;;;;;;12.75;7.40;;;3.70;99.90;;;;;;4980388;28;20058;-77
2021/03/12 01:15:35;;;;;;;17.70;7.65;;;3.70;99.90;;;;;;4988667;28;20050;-77
2021/03/12 01:18:10;;;;;;;14.23;7.53;;;3.70;99.90;;;;;;4987330;28;20714;-77
2021/03/12 01:20:39;;;;;;;15.40;7.28;;;3.80;99.90;;;;;;4987402;28;20073;-77
2021/03/12 01:23:09;;;;;;;10.80;7.68;;;3.80;99.90;;;;;;4988090;28;20076;-76
2021/03/12 01:25:42;;;;;;;17.30;7.82;;;3.90;99.90;;;;;;4967978;28;20145;-76
2021/03/12 01:28:09;;;;;;;14.77;8.27;;;4.00;99.90;;;;;;4987073;28;20326;-77
2021/03/12 01:30:38;;;;;;;18.42;8.13;;;4.00;99.90;;;;;;5003278;28;20454;-77
2021/03/12 01:33:22;;;;;;;13.88;8.20;;;4.10;99.90;;;;;;4986608;28;20062;-76
2021/03/12 01:35:48;;;;;;;19.48;8.13;;;4.10;99.90;;;;;;4953703;28;20137;-75
2021/03/12 01:38:16;;;;;;;16.75;8.07;;;4.10;99.90;;;;;;4987037;28;20483;-76
2021/03/12 01:40:45;;;;;;;25.40;7.80;;;4.30;99.90;;;;;;5003254;28;20674;-76
2021/03/12 01:43:12;;;;;;;18.05;8.27;;;4.30;99.90;;;;;;4984687;28;20129;-76
2021/03/12 01:45:41;;;;;;;10.05;5.82;;;4.40;99.90;;;;;;4978335;28;20046;-76
2021/03/12 01:48:14;;;;;;;17.20;8.38;;;4.40;99.90;;;;;;4987350;28;20507;-77
2021/03/12 01:50:44;;;;;;;14.75;6.78;;;4.40;99.90;;;;;;4987804;28;20517;-76
2021/03/12 01:53:11;;;;;;;10.98;4.97;;;4.40;99.90;;;;;;4971985;28;20105;-76
2021/03/12 01:55:39;;;;;;;9.13;5.53;;;4.10;99.90;;;;;;5003515;28;20107;-76
2021/03/12 01:58:07;;;;;;;5.57;3.85;;;3.50;99.90;;;;;;4988283;28;20056;-77
2021/03/12 02:00:39;;;;;;;6.35;4.28;;;3.10;99.90;;;;;;4987368;28;20046;-76
2021/03/12 02:03:23;;;;;;;7.50;4.65;;;2.80;99.90;;;;;;5003815;28;20080;-77
2021/03/12 02:06:13;;;;;;;10.45;5.78;;;2.80;99.90;;;;;;4968988;28;20062;-76
2021/03/12 02:08:42;;;;;;;9.80;6.40;;;2.90;99.90;;;;;;5004274;28;20050;-76
2021/03/12 02:11:34;;;;;;;9.10;5.68;;;2.90;99.90;;;;;;4958951;28;20571;-77
2021/03/12 02:14:50;;;;;;;14.25;8.27;;;2.90;99.90;;;;;;4955300;28;20591;-76
2021/03/12 02:17:25;;;;;;;18.35;7.18;;;2.90;99.90;;;;;;4973265;28;20054;-76
2021/03/12 02:20:06;;;;;;;;;;;3.00;99.90;;;;;;4947931;28;20062;-75
2021/03/12 02:22:37;;;;;;;13.38;7.57;;;3.10;99.90;;;;;;4981225;28;19921;-75
2021/03/12 02:25:12;;;;;;;16.55;8.80;;;3.10;99.90;;;;;;4971013;28;20061;-76
2021/03/12 02:27:53;;;;;;;16.60;7.85;;;3.10;99.90;;;;;;4967850;28;20047;-77
2021/03/12 02:30:20;;;;;;;13.57;8.13;;;3.10;99.90;;;;;;4956203;28;20434;-77
2021/03/12 02:32:50;;;;;;;14.77;8.98;;;3.00;99.90;;;;;;4987788;28;20453;-77
2021/03/12 02:35:27;;;;;;;18.23;9.43;;;3.00;99.90;;;;;;4970835;28;20062;-77
2021/03/12 02:38:06;;;;;;;19.83;10.32;;;3.00;99.90;;;;;;4986591;28;20153;-76
2021/03/12 02:40:35;;;;;;;20.05;10.45;;;3.00;99.90;;;;;;4970015;28;20050;-77
2021/03/12 02:43:06;;;;;;;17.60;10.77;;;3.00;99.90;;;;;;4967367;28;20050;-77
2021/03/12 02:45:33;;;;;;;18.40;10.30;;;3.00;99.90;;;;;;4985614;28;20045;-77
2021/03/12 02:48:08;;;;;;;22.35;11.25;;;3.00;99.90;;;;;;4971491;28;20490;-77
2021/03/12 02:50:39;;;;;;;23.25;11.88;;;3.10;99.90;;;;;;4986041;28;20100;-77
2021/03/12 02:53:09;;;;;;;23.63;12.05;;;3.10;99.90;;;;;;4985064;28;20053;-76
2021/03/12 02:55:37;;;;;;;23.50;10.45;;;3.20;99.90;;;;;;4969455;28;20046;-76
2021/03/12 02:58:09;;;;;;;23.17;10.43;;;3.30;99.90;;;;;;5003086;28;20057;-77
2021/03/12 03:00:35;;;;;;;22.58;11.48;;;3.40;99.90;;;;;;4987302;28;20053;-75
2021/03/12 03:03:20;;;;;;;24.75;12.20;;;3.50;99.90;;;;;;4985782;28;20452;-76
2021/03/12 03:06:23;;;;;;;18.90;9.88;;;3.60;99.90;;;;;;4966453;28;20137;-76
2021/03/12 03:08:50;;;;;;;20.90;10.20;;;3.70;99.90;;;;;;4984458;28;20112;-76
2021/03/12 03:11:17;;;;;;;20.88;10.45;;;3.70;99.90;;;;;;5004424;28;20058;-76
2021/03/12 03:13:58;;;;;;;18.83;10.68;;;3.80;99.90;;;;;;4949656;28;20049;-77
2021/03/12 03:16:30;;;;;;;18.02;7.35;;;3.80;99.90;;;;;;5001461;28;20141;-76
2021/03/12 03:18:58;;;;;;;18.48;10.35;;;3.90;99.90;;;;;;4985603;28;20108;-76
2021/03/12 03:21:26;;;;;;;17.83;9.77;;;3.90;99.90;;;;;;5000920;28;20055;-76
2021/03/12 03:23:53;;;;;;;23.58;9.93;;;3.90;99.90;;;;;;5001637;28;20108;-76
2021/03/12 03:26:20;;;;;;;23.83;12.30;;;3.90;99.90;;;;;;5000779;28;20097;-77
2021/03/12 03:28:48;;;;;;;23.77;11.65;;;4.00;99.90;;;;;;4999396;28;20050;-77
2021/03/12 03:31:15;;;;;;;20.20;12.05;;;4.00;99.90;;;;;;4968542;28;20442;-77
2021/03/12 03:33:42;;;;;;;23.15;11.13;;;4.00;99.90;;;;;;4964862;28;20423;-76
2021/03/12 03:36:10;;;;;;;21.60;11.23;;;4.00;99.90;;;;;;4956580;28;20072;-77
2021/03/12 03:38:38;;;;;;;18.10;11.63;;;4.00;99.90;;;;;;4952978;28;20049;-77
2021/03/12 03:41:08;;;;;;;26.60;13.35;;;4.00;99.90;;;;;;4983516;28;20050;-76
2021/03/12 03:43:39;;;;;;;16.02;9.73;;;4.00;99.90;;;;;;4989052;28;20048;-77
2021/03/12 03:46:10;;;;;;;19.00;10.98;;;3.90;99.90;;;;;;4984153;28;20560;-76
2021/03/12 03:48:42;;;;;;;15.77;10.52;;;3.90;99.90;;;;;;4969955;28;20144;-77
2021/03/12 03:51:13;;;;;;;21.02;11.85;;;3.90;99.90;;;;;;4952375;28;20045;-77
2021/03/12 03:53:44;;;;;;;20.27;11.77;;;3.90;99.90;;;;;;4980916;28;20054;-77
2021/03/12 03:56:13;;;;;;;27.92;15.10;;;3.90;99.90;;;;;;4977006;28;20050;-77
2021/03/12 03:58:40;;;;;;;22.33;13.32;;;3.90;99.90;;;;;;4976798;28;20050;-76
2021/03/12 04:01:07;;;;;;;32.78;15.93;;;3.90;99.90;;;;;;4987491;28;20054;-77
2021/03/12 04:03:37;;;;;;;26.02;14.77;;;4.00;99.90;;;;;;4989322;28;20474;-76
2021/03/12 04:06:06;;;;;;;30.23;14.88;;;4.00;99.90;;;;;;4987188;28;20060;-76
2021/03/12 04:08:35;;;;;;;31.02;16.45;;;4.00;99.90;;;;;;4989226;28;20050;-78
2021/03/12 04:11:02;;;;;;;24.20;13.30;;;4.00;99.90;;;;;;4975660;28;20087;-76
2021/03/12 04:13:33;;;;;;;30.17;17.20;;;4.00;99.90;;;;;;4985648;28;20051;-77
2021/03/12 04:16:02;;;;;;;32.25;16.95;;;4.00;99.90;;;;;;4953468;28;20047;-76
2021/03/12 04:18:30;;;;;;;27.67;14.30;;;4.10;99.90;;;;;;4953573;28;20097;-76
2021/03/12 04:20:58;;;;;;;27.25;14.60;;;4.00;99.90;;;;;;4940166;28;20054;-77
2021/03/12 04:23:26;;;;;;;28.17;14.80;;;4.00;99.90;;;;;;4952524;28;20461;-78
2021/03/12 04:25:53;;;;;;;34.03;15.18;;;4.00;99.90;;;;;;5003204;28;20051;-77
2021/03/12 04:28:20;;;;;;;27.88;12.25;;;4.00;99.90;;;;;;4986865;28;20046;-77
2021/03/12 04:30:47;;;;;;;28.98;14.82;;;4.00;99.90;;;;;;4989215;28;20062;-76
2021/03/12 04:33:16;;;;;;;26.25;12.90;;;4.10;99.90;;;;;;4972787;28;20057;-77
2021/03/12 04:35:50;;;;;;;21.52;10.52;;;4.10;99.90;;;;;;4990110;28;20105;-77
2021/03/12 04:38:19;;;;;;;31.15;14.30;;;4.10;99.90;;;;;;4954395;28;20065;-77
2021/03/12 04:40:46;;;;;;;28.13;12.85;;;4.10;99.90;;;;;;4971098;28;20062;-77
2021/03/12 04:43:12;;;;;;;25.90;12.15;;;4.10;99.90;;;;;;4972547;28;20691;-77
2021/03/12 04:45:40;;;;;;;32.33;13.20;;;4.10;99.90;;;;;;4974670;28;20034;-77
2021/03/12 04:48:07;;;;;;;25.52;13.55;;;4.10;99.90;;;;;;5005897;28;20057;-76
2021/03/12 04:50:35;;;;;;;31.58;15.65;;;4.10;99.90;;;;;;5006720;28;20527;-77
2021/03/12 04:53:05;;;;;;;26.50;14.00;;;4.10;99.90;;;;;;4991501;28;20058;-77
2021/03/12 04:55:32;;;;;;;40.58;13.65;;;4.10;99.90;;;;;;4992017;28;20042;-77
2021/03/12 04:58:00;;;;;;;28.30;14.43;;;4.10;99.90;;;;;;4991380;28;20467;-77
2021/03/12 05:00:28;;;;;;;19.55;11.98;;;4.10;99.90;;;;;;4992552;28;20117;-76
2021/03/12 05:03:05;;;;;;;16.48;10.75;;;4.00;99.90;;;;;;4991993;28;20046;-77
2021/03/12 05:05:35;;;;;;;20.55;12.68;;;4.00;99.90;;;;;;4989415;28;20163;-77
2021/03/12 05:08:03;;;;;;;27.92;13.75;;;4.00;99.90;;;;;;4987464;28;20575;-76
2021/03/12 05:10:36;;;;;;;21.13;9.60;;;4.00;99.90;;;;;;4971034;28;20118;-77
2021/03/12 05:13:06;;;;;;;17.05;9.90;;;4.00;99.90;;;;;;4988487;28;20050;-77
2021/03/12 05:15:38;;;;;;;10.88;7.10;;;4.00;99.90;;;;;;5004110;28;20134;-76
2021/03/12 05:18:05;;;;;;;17.60;10.52;;;4.10;99.90;;;;;;4972137;28;20043;-76
2021/03/12 05:20:33;;;;;;;12.32;8.35;;;4.10;99.90;;;;;;5003121;28;20058;-77
2021/03/12 05:23:00;;;;;;;15.48;8.82;;;4.10;99.90;;;;;;5005195;28;20046;-77
2021/03/12 05:25:26;;;;;;;17.80;9.93;;;4.10;99.90;;;;;;4988806;28;21233;-77
2021/03/12 05:27:53;;;;;;;23.33;9.70;;;4.10;99.90;;;;;;4986370;28;20402;-77
2021/03/12 05:30:20;;;;;;;22.00;10.68;;;4.10;99.90;;;;;;4955597;28;20422;-75
2021/03/12 05:32:51;;;;;;;15.30;8.57;;;4.10;99.90;;;;;;4987621;28;20069;-76
2021/03/12 05:35:19;;;;;;;14.40;7.60;;;4.10;99.90;;;;;;4969630;28;20418;-75
2021/03/12 05:37:46;;;;;;;20.35;8.07;;;4.10;99.90;;;;;;4978400;28;20050;-76
2021/03/12 05:40:12;;;;;;;15.13;8.45;;;4.10;99.90;;;;;;4962554;28;20078;-76
2021/03/12 05:42:46;;;;;;;17.02;8.50;;;4.10;99.90;;;;;;4988702;28;20519;-76
2021/03/12 05:45:14;;;;;;;13.48;9.55;;;4.20;99.90;;;;;;4969436;28;20137;-77
2021/03/12 05:47:52;;;;;;;10.38;7.68;;;4.20;99.90;;;;;;4951772;28;20098;-76
2021/03/12 05:50:20;;;;;;;16.58;8.65;;;4.20;99.90;;;;;;4956377;28;20522;-76
2021/03/12 05:52:47;;;;;;;25.95;10.90;;;4.20;99.90;;;;;;4951425;28;20055;-76
2021/03/12 05:55:17;;;;;;;14.82;9.95;;;4.20;99.90;;;;;;4967145;28;20141;-76
2021/03/12 05:57:46;;;;;;;14.57;9.43;;;4.20;99.90;;;;;;4978234;28;20066;-76
2021/03/12 06:00:13;;;;;;;8.45;6.65;;;4.20;99.90;;;;;;4986247;28;20046;-76
2021/03/12 06:02:43;;;;;;;18.63;9.48;;;4.20;99.90;;;;;;4963799;28;20050;-77
2021/03/12 06:05:19;;;;;;;14.98;9.40;;;4.20;99.90;;;;;;4964454;28;20511;-77
2021/03/12 06:07:49;;;;;;;17.13;9.77;;;4.20;99.90;;;;;;4984580;28;20137;-77
2021/03/12 06:10:16;;;;;;;13.05;10.95;;;4.30;99.90;;;;;;4969902;28;20531;-77
2021/03/12 06:12:43;;;;;;;17.00;11.40;;;4.30;99.90;;;;;;4966119;28;20547;-76
2021/03/12 06:15:10;;;;;;;17.75;11.80;;;4.30;99.90;;;;;;4983034;28;20058;-77
2021/03/12 06:17:46;;;;;;;13.07;10.63;;;4.30;99.90;;;;;;4951384;28;20557;-76
2021/03/12 06:20:19;;;;;;;14.88;11.23;;;4.30;99.90;;;;;;5001136;28;20543;-77
2021/03/12 06:22:53;;;;;;;18.60;12.55;;;4.30;99.90;;;;;;4985422;28;20051;-77
2021/03/12 06:25:21;;;;;;;13.23;11.35;;;4.30;99.90;;;;;;4987617;28;20050;-76
2021/03/12 06:28:19;;;;;;;15.18;11.02;;;4.30;99.90;;;;;;4985274;28;20054;-77
2021/03/12 06:31:25;;;;;;;12.48;11.35;;;4.30;99.90;;;;;;4986272;28;20050;-77
2021/03/12 06:34:10;;;;;;;;;;;4.30;99.90;;;;;;4965983;28;20047;-76
2021/03/12 06:36:57;;;;;;;;;;;4.30;99.90;;;;;;4985577;28;20325;-76
2021/03/12 06:39:36;;;;;;;18.45;13.70;;;4.20;99.90;;;;;;5013695;28;20194;-76
2021/03/12 06:42:14;;;;;;;18.75;13.30;;;4.20;99.90;;;;;;4968437;28;20137;-75
2021/03/12 06:44:48;;;;;;;20.80;12.35;;;4.30;99.90;;;;;;4967487;28;20450;-77
2021/03/12 06:47:21;;;;;;;15.98;13.32;;;4.30;99.90;;;;;;4982208;28;20057;-76
2021/03/12 06:49:58;;;;;;;17.23;13.85;;;4.30;99.90;;;;;;4985564;28;20062;-77
2021/03/12 06:52:38;;;;;;;22.90;15.15;;;4.30;99.90;;;;;;4987604;28;20141;-77
2021/03/12 06:55:16;;;;;;;16.85;13.68;;;4.30;99.90;;;;;;4985532;28;20129;-77
2021/03/12 06:58:10;;;;;;;19.13;13.13;;;4.30;99.90;;;;;;4987942;28;20062;-77
2021/03/12 07:01:16;;;;;;;15.55;13.98;;;4.30;99.90;;;;;;4972896;28;20427;-78
2021/03/12 07:03:42;;;;;;;14.70;13.27;;;4.30;99.90;;;;;;4969385;28;20136;-77
2021/03/12 07:06:43;;;;;;;17.00;14.70;;;4.40;99.90;;;;;;4991935;28;20996;-77
2021/03/12 07:09:10;;;;;;;18.42;13.38;;;4.40;99.90;;;;;;4981814;28;20062;-78
2021/03/12 07:12:02;;;;;;;16.65;15.10;;;4.40;99.90;;;;;;4953342;28;20042;-77
2021/03/12 07:14:46;;;;;;;18.85;14.85;;;4.40;99.90;;;;;;4956075;28;20046;-78
2021/03/12 07:17:22;;;;;;;16.45;14.75;;;4.50;99.90;;;;;;4969262;28;20587;-77
2021/03/12 07:19:53;;;;;;;15.75;13.60;;;4.40;99.90;;;;;;4969426;28;20516;-77
2021/03/12 07:22:21;;;;;;;21.05;15.05;;;4.50;99.90;;;;;;4965429;28;20042;-78
2021/03/12 07:24:51;;;;;;;22.83;14.13;;;4.50;99.90;;;;;;4983893;28;20038;-77
2021/03/12 07:27:18;;;;;;;15.98;13.63;;;4.50;99.90;;;;;;4967561;28;20150;-77
2021/03/12 07:30:11;;;;;;;18.70;14.27;;;4.50;99.90;;;;;;4981396;28;20057;-78
2021/03/12 07:32:45;;;;;;;15.13;13.55;;;4.50;99.90;;;;;;4969264;28;20050;-78
2021/03/12 07:35:15;;;;;;;18.08;13.63;;;4.60;99.90;;;;;;4999682;28;20054;-78
2021/03/12 07:38:07;;;;;;;14.95;13.45;;;4.60;99.90;;;;;;4981097;28;20365;-78
2021/03/12 07:40:40;;;;;;;19.13;14.45;;;4.70;99.90;;;;;;4984496;28;20046;-78
2021/03/12 07:43:16;;;;;;;15.50;13.95;;;4.70;99.90;;;;;;4993516;28;20482;-77
2021/03/12 07:46:03;;;;;;;15.60;14.23;;;4.80;99.90;;;;;;4971786;28;20050;-76
2021/03/12 07:48:51;;;;;;;16.50;14.85;;;4.80;99.90;;;;;;4969610;28;20051;-77
2021/03/12 07:51:45;;;;;;;14.55;13.20;;;4.90;99.90;;;;;;4953849;28;20160;-77
2021/03/12 07:54:16;;;;;;;13.68;12.38;;;5.00;99.90;;;;;;4993949;28;20073;-77
2021/03/12 07:56:45;;;;;;;22.30;13.35;;;5.00;99.90;;;;;;4973758;28;20047;-77
2021/03/12 08:00:01;;;;;;;15.50;13.00;;;5.10;99.90;;;;;;4966982;28;20149;-78
2021/03/12 08:02:53;;;;;;;13.82;12.73;;;5.30;99.90;;;;;;4961009;28;20093;-76
2021/03/12 08:05:45;;;;;;;15.90;13.02;;;5.30;99.90;;;;;;4948502;28;20049;-77
2021/03/12 08:08:38;;;;;;;14.82;13.35;;;5.40;99.90;;;;;;4985016;28;20178;-77
2021/03/12 08:11:52;;;;;;;15.52;13.90;;;5.60;99.90;;;;;;4983673;28;20051;-78
2021/03/12 08:14:38;;;;;;;16.50;14.82;;;5.80;99.90;;;;;;4964199;28;20057;-77
2021/03/12 08:17:13;;;;;;;;;;;5.90;99.90;;;;;;4981054;28;20070;-77
2021/03/12 08:19:49;;;;;;;14.65;13.25;;;5.90;99.90;;;;;;4983701;28;20417;-78
2021/03/12 08:22:27;;;;;;;14.90;13.48;;;6.00;99.90;;;;;;4991993;28;20047;-78
2021/03/12 08:25:12;;;;;;;13.82;12.73;;;6.10;99.90;;;;;;4960117;28;20067;-77
2021/03/12 08:27:53;;;;;;;14.15;13.05;;;5.90;99.90;;;;;;5005594;28;20054;-78
2021/03/12 08:30:35;;;;;;;14.02;12.77;;;5.80;99.90;;;;;;4974710;28;20049;-78
2021/03/12 08:33:26;;;;;;;18.02;13.68;;;5.70;99.90;;;;;;4999037;28;20062;-78
2021/03/12 08:36:24;;;;;;;14.27;12.82;;;5.70;99.90;;;;;;4979610;28;20078;-77
2021/03/12 08:39:28;;;;;;;14.48;13.05;;;5.80;99.90;;;;;;4990594;28;20506;-78
2021/03/12 08:43:00;;;;;;;12.90;11.82;;;5.80;99.90;;;;;;4998074;28;20042;-79
2021/03/12 08:45:55;;;;;;;14.27;12.20;;;5.80;99.90;;;;;;4984680;28;20039;-77
2021/03/12 08:48:33;;;;;;;14.02;12.45;;;5.90;99.90;;;;;;4932602;28;20042;-79
2021/03/12 08:51:07;;;;;;;14.68;12.18;;;5.90;99.90;;;;;;4991322;28;20617;-78
2021/03/12 08:53:45;;;;;;;14.07;11.82;;;5.80;99.90;;;;;;4973502;28;20405;-78
2021/03/12 08:56:12;;;;;;;11.40;10.52;;;6.00;99.90;;;;;;4955684;28;20062;-78
2021/03/12 08:58:48;;;;;;;17.98;13.07;;;6.20;99.90;;;;;;4988341;28;20108;-79
2021/03/12 09:01:57;;;;;;;15.32;13.65;;;6.20;99.90;;;;;;4976352;28;20077;-78
2021/03/12 09:04:30;;;;;;;14.38;13.25;;;6.40;99.90;;;;;;4972696;28;20129;-79
2021/03/12 09:07:27;;;;;;;17.70;13.55;;;6.70;99.90;;;;;;4972019;28;20054;-78
2021/03/12 09:10:26;;;;;;;14.95;13.75;;;6.90;99.90;;;;;;4959325;28;20078;-78
2021/03/12 09:13:30;;;;;;;16.90;15.48;;;6.80;99.90;;;;;;4983167;28;20065;-78
2021/03/12 09:16:01;;;;;;;20.35;14.75;;;6.80;99.90;;;;;;4970895;28;20058;-78
2021/03/12 09:18:39;;;;;;;15.25;13.88;;;6.90;99.90;;;;;;4956298;28;20149;-78
2021/03/12 09:21:14;;;;;;;18.63;14.23;;;7.10;99.90;;;;;;4974184;28;20420;-78
2021/03/12 09:23:42;;;;;;;15.85;14.00;;;7.00;99.90;;;;;;4996652;28;20039;-79
2021/03/12 09:26:12;;;;;;;16.70;14.77;;;7.20;99.90;;;;;;4969004;28;20046;-77
2021/03/12 09:28:47;;;;;;;19.92;14.98;;;7.10;99.90;;;;;;4971197;28;20200;-78
2021/03/12 09:31:25;;;;;;;17.48;15.73;;;7.30;99.90;;;;;;4958720;28;20042;-78
2021/03/12 09:33:54;;;;;;;16.92;15.27;;;7.50;99.90;;;;;;4955494;28;20038;-79
2021/03/12 09:36:50;;;;;;;16.17;14.90;;;7.60;99.90;;;;;;4970462;28;20060;-79
2021/03/12 09:39:40;;;;;;;18.70;16.67;;;7.70;99.90;;;;;;4976727;28;20050;-78
2021/03/12 09:42:23;;;;;;;16.58;14.88;;;7.90;99.90;;;;;;4977309;28;20054;-79
2021/03/12 09:45:03;;;;;;;16.55;15.10;;;8.30;99.90;;;;;;5017225;28;20571;-78
2021/03/12 09:47:34;;;;;;;17.33;15.20;;;8.40;99.90;;;;;;4985887;28;20056;-79
2021/03/12 09:50:07;;;;;;;16.60;15.20;;;8.20;99.90;;;;;;4973054;28;20154;-79
2021/03/12 09:52:55;;;;;;;16.08;14.60;;;7.90;99.90;;;;;;4986627;28;20116;-78
2021/03/12 09:55:34;;;;;;;16.48;14.20;;;7.80;99.90;;;;;;4967621;28;20039;-79
2021/03/12 09:58:07;;;;;;;16.00;14.70;;;8.20;99.90;;;;;;4985997;28;20046;-79
2021/03/12 10:00:38;;;;;;;15.77;14.40;;;8.40;99.90;;;;;;4970088;28;20506;-80
2021/03/12 10:03:09;;;;;;;16.35;14.65;;;8.30;99.90;;;;;;4951271;28;20051;-79
2021/03/12 10:05:44;;;;;;;15.52;14.48;;;8.40;99.90;;;;;;5009443;28;20046;-78
2021/03/12 10:08:13;;;;;;;14.30;13.32;;;8.00;99.90;;;;;;5011082;28;20227;-79
2021/03/12 10:11:18;;;;;;;15.70;14.13;;;7.60;99.90;;;;;;4979715;28;20070;-78
2021/03/12 10:13:55;;;;;;;14.52;13.43;;;7.20;99.90;;;;;;4987637;28;20066;-80
2021/03/12 10:16:36;;;;;;;14.45;13.18;;;7.00;99.90;;;;;;4959151;28;20062;-81
2021/03/12 10:19:22;;;;;;;18.27;13.93;;;7.00;99.90;;;;;;4970849;28;20073;-80
2021/03/12 10:21:48;;;;;;;16.70;14.93;;;7.10;99.90;;;;;;4985366;28;20050;-80
2021/03/12 10:24:18;;;;;;;14.32;13.20;;;7.50;99.90;;;;;;4976739;28;20089;-79
2021/03/12 10:26:44;;;;;;;15.80;14.48;;;7.50;99.90;;;;;;4986392;28;20046;-79
2021/03/12 10:29:12;;;;;;;14.32;13.32;;;7.60;99.90;;;;;;4986419;28;20046;-79
2021/03/12 10:31:42;;;;;;;19.67;15.18;;;7.70;99.90;;;;;;4965670;28;20057;-80
2021/03/12 10:34:09;;;;;;;17.23;15.75;;;7.50;99.90;;;;;;4984006;28;20050;-80
2021/03/12 10:36:35;;;;;;;20.20;14.60;;;7.50;99.90;;;;;;4979179;28;20138;-79
2021/03/12 10:39:15;;;;;;;14.85;13.55;;;7.40;99.90;;;;;;4985067;28;20153;-78
2021/03/12 10:41:42;;;;;;;16.23;14.82;;;7.50;99.90;;;;;;4969433;28;20058;-80
2021/03/12 10:44:10;;;;;;;14.68;13.57;;;7.50;99.90;;;;;;4972144;28;20113;-80
2021/03/12 10:46:36;;;;;;;14.80;13.68;;;7.70;99.90;;;;;;4985915;28;20054;-79
2021/03/12 10:49:04;;;;;;;20.10;13.80;;;7.60;99.90;;;;;;4985812;28;20058;-80
2021/03/12 10:51:41;;;;;;;15.05;13.95;;;7.80;99.90;;;;;;4986211;28;20050;-79
2021/03/12 10:54:12;;;;;;;14.40;13.02;;;7.80;99.90;;;;;;4988338;28;20062;-79
2021/03/12 10:56:46;;;;;;;15.50;14.30;;;7.50;99.90;;;;;;4985878;28;20062;-80
2021/03/12 10:59:13;;;;;;;15.15;13.85;;;7.40;99.90;;;;;;5020308;28;20054;-80
2021/03/12 11:01:41;;;;;;;15.30;13.82;;;7.40;99.90;;;;;;4985876;28;20050;-77
2021/03/12 11:04:12;;;;;;;15.02;13.90;;;7.40;99.90;;;;;;4985765;28;20312;-78
2021/03/12 11:06:41;;;;;;;15.52;14.20;;;7.40;99.90;;;;;;5002125;28;20463;-79
2021/03/12 11:09:10;;;;;;;15.25;13.77;;;7.50;99.90;;;;;;4980471;28;20058;-78
2021/03/12 11:11:37;;;;;;;13.68;12.90;;;7.60;99.90;;;;;;4984128;28;20046;-80
2021/03/12 11:14:05;;;;;;;16.23;13.77;;;7.50;99.90;;;;;;4971236;28;20050;-78
2021/03/12 11:16:32;;;;;;;15.25;13.88;;;7.60;99.90;;;;;;4965591;28;20588;-79
2021/03/12 11:18:59;;;;;;;15.57;13.93;;;7.70;99.90;;;;;;4954671;28;20313;-79
2021/03/12 11:21:28;;;;;;;15.00;13.80;;;7.70;99.90;;;;;;4985145;28;20097;-79
2021/03/12 11:23:55;;;;;;;14.70;13.35;;;7.60;99.90;;;;;;4955558;28;20046;-80
2021/03/12 11:26:23;;;;;;;15.65;14.23;;;7.60;99.90;;;;;;4980271;28;20494;-78
2021/03/12 11:28:49;;;;;;;16.30;14.65;;;7.60;99.90;;;;;;4977473;28;20089;-80
2021/03/12 11:31:15;;;;;;;14.10;12.80;;;7.70;99.90;;;;;;4982211;28;20129;-78
2021/03/12 11:33:42;;;;;;;15.18;13.70;;;7.60;99.90;;;;;;4948384;28;20074;-78
2021/03/12 11:36:10;;;;;;;13.70;12.70;;;7.80;99.90;;;;;;4959500;28;20046;-78
2021/03/12 11:38:37;;;;;;;13.90;12.77;;;7.90;99.90;;;;;;4995303;28;20133;-79
2021/03/12 11:41:04;;;;;;;14.48;13.15;;;7.80;99.90;;;;;;4966595;28;20046;-78
2021/03/12 11:43:30;;;;;;;13.43;12.35;;;7.80;99.90;;;;;;4969154;28;20046;-79
2021/03/12 11:45:57;;;;;;;13.75;12.75;;;7.80;99.90;;;;;;5000918;28;20476;-79
2021/03/12 11:48:24;;;;;;;16.75;15.15;;;7.70;99.90;;;;;;4985502;28;20058;-79
2021/03/12 11:50:52;;;;;;;16.35;15.00;;;7.70;99.90;;;;;;4952921;28;20105;-80
2021/03/12 11:53:19;;;;;;;15.32;13.95;;;7.80;99.90;;;;;;4969368;28;20133;-79
2021/03/12 11:55:46;;;;;;;13.98;12.95;;;7.80;99.90;;;;;;4952553;28;20104;-79
2021/03/12 11:58:12;;;;;;;13.52;12.82;;;7.80;99.90;;;;;;4985628;28;20162;-79
2021/03/12 12:00:40;;;;;;;13.57;12.77;;;7.90;99.90;;;;;;4984822;28;20423;-79
2021/03/12 12:03:07;;;;;;;14.25;12.90;;;8.00;99.90;;;;;;4987099;28;20058;-81
2021/03/12 12:05:33;;;;;;;14.90;13.68;;;8.00;99.90;;;;;;4969250;28;20047;-80
2021/03/12 12:08:00;;;;;;;13.43;12.73;;;7.90;99.90;;;;;;4966907;28;20455;-78
2021/03/12 12:10:27;;;;;;;15.65;13.30;;;8.00;99.90;;;;;;4999247;28;20046;-79
2021/03/12 12:12:56;;;;;;;17.60;12.68;;;8.20;99.90;;;;;;4983021;28;20046;-79
2021/03/12 12:15:27;;;;;;;13.82;12.82;;;8.30;99.90;;;;;;4990935;28;20060;-79
2021/03/12 12:18:01;;;;;;;15.27;13.02;;;8.50;99.90;;;;;;4985064;28;20561;-79
2021/03/12 12:20:29;;;;;;;13.85;12.77;;;8.50;99.90;;;;;;5016484;28;20054;-80
2021/03/12 12:22:55;;;;;;;13.65;12.63;;;8.30;99.90;;;;;;5005333;28;20055;-81
2021/03/12 12:25:23;;;;;;;15.60;13.00;;;8.20;99.90;;;;;;4973596;28;20046;-78
2021/03/12 12:27:49;;;;;;;13.25;12.13;;;8.20;99.90;;;;;;4959016;28;20073;-80
2021/03/12 12:30:16;;;;;;;12.88;11.98;;;8.20;99.90;;;;;;4992211;28;20603;-79
2021/03/12 12:32:44;;;;;;;13.07;11.93;;;8.20;99.90;;;;;;4957905;28;20054;-79
2021/03/12 12:35:11;;;;;;;13.18;11.93;;;8.10;99.90;;;;;;4967770;28;20471;-80
2021/03/12 12:37:39;;;;;;;13.57;12.55;;;8.10;99.90;;;;;;4966675;28;20071;-82
2021/03/12 12:40:07;;;;;;;14.10;13.10;;;8.10;99.90;;;;;;4977776;28;20686;-79
2021/03/12 12:42:33;;;;;;;13.43;12.57;;;8.20;99.90;;;;;;4955718;28;20046;-80
2021/03/12 12:45:00;;;;;;;14.23;13.10;;;8.30;99.90;;;;;;4981203;28;20073;-80
2021/03/12 12:47:27;;;;;;;12.73;11.93;;;8.40;99.90;;;;;;4972753;28;20330;-79
2021/03/12 12:49:53;;;;;;;13.65;12.85;;;8.60;99.90;;;;;;4973695;28;20062;-78
2021/03/12 12:52:21;;;;;;;12.45;11.52;;;8.60;99.90;;;;;;4986574;28;20043;-79
2021/03/12 12:54:47;;;;;;;12.90;11.90;;;8.50;99.90;;;;;;5005805;28;20138;-80
2021/03/12 12:57:16;;;;;;;12.82;11.73;;;8.60;99.90;;;;;;4996967;28;20534;-79
2021/03/12 12:59:42;;;;;;;12.73;11.88;;;8.70;99.90;;;;;;4987597;28;20126;-80
2021/03/12 13:02:08;;;;;;;12.20;11.40;;;8.60;99.90;;;;;;5003137;28;20592;-80
2021/03/12 13:04:35;;;;;;;12.25;11.38;;;8.50;99.90;;;;;;5005097;28;20104;-78
2021/03/12 13:07:01;;;;;;;12.52;11.38;;;8.60;99.90;;;;;;4975628;28;20050;-79
2021/03/12 13:09:28;;;;;;;13.25;12.10;;;8.50;99.90;;;;;;4974098;28;20047;-79
2021/03/12 13:11:54;;;;;;;13.18;12.20;;;8.40;99.90;;;;;;4988140;28;20139;-79